Time;durP1;ratioP1;P1;durP2;ratioP2;P2;SDS_P1;SDS_P2;PMS_P1;PMS_P2;Temp;Humidity;BMP_temperature;BMP_pressure;BME280_temperature;BME280_humidity;BME280_pressure;Samples;Min_cycle;Max_cycle;Signal;HPM_P1;HPM_P2
2022/05/30 00:03:20;;;;;;;9.23;4.28;;;;;;;12.67;75.19;99674.81;2791020;83;21043;-87
2022/05/30 00:07:21;;;;;;;4.05;3.52;;;;;;;12.61;74.88;99679.92;2836065;84;21025;-87
2022/05/30 00:11:22;;;;;;;6.72;4.03;;;;;;;12.50;74.69;99680.99;2790485;84;21026;-87
2022/05/30 00:15:24;;;;;;;5.70;4.50;;;;;;;12.40;74.53;99677.07;2835537;82;21022;-87
2022/05/30 00:19:25;;;;;;;4.67;4.15;;;;;;;12.31;74.58;99672.67;2842018;82;21450;-87
2022/05/30 00:23:26;;;;;;;5.00;4.50;;;;;;;12.17;74.75;99675.34;2843262;82;20967;-88
2022/05/30 00:27:28;;;;;;;6.80;3.37;;;;;;;12.08;74.60;99673.94;2819612;83;21153;-87
2022/05/30 00:31:29;;;;;;;4.83;3.80;;;;;;;11.97;73.99;99668.77;2793860;83;21588;-88
2022/05/30 00:35:31;;;;;;;6.47;3.83;;;;;;;11.83;74.43;99678.98;2822340;83;21518;-87
2022/05/30 00:39:36;;;;;;;3.92;3.55;;;;;;;11.74;74.88;99677.70;2791385;83;21020;-87
2022/05/30 00:43:39;;;;;;;3.80;3.50;;;;;;;11.63;75.13;99674.73;2816845;84;21083;-86
2022/05/30 00:47:40;;;;;;;13.30;4.40;;;;;;;11.53;75.36;99670.79;2792100;83;21030;-89
2022/05/30 00:51:48;;;;;;;6.50;4.92;;;;;;;11.46;75.56;99672.34;2825228;83;21085;-87
2022/05/30 00:55:50;;;;;;;5.12;3.30;;;;;;;11.42;75.33;99672.64;2837783;82;21010;-88
2022/05/30 01:00:09;;;;;;;5.05;3.87;;;;;;;11.36;75.39;99669.72;2813657;82;21073;-88
2022/05/30 01:08:36;;;;;;;8.75;2.92;;;;;;;11.23;74.87;99669.58;2818574;82;21636;-88
2022/05/30 01:12:45;;;;;;;5.25;3.58;;;;;;;11.13;74.99;99661.62;2841297;82;21561;-87
2022/05/30 01:16:47;;;;;;;7.37;4.22;;;;;;;11.08;75.58;99661.70;2813609;83;21112;-86
2022/05/30 01:21:20;;;;;;;4.83;3.87;;;;;;;11.03;76.22;99662.62;2788617;83;21066;-87
2022/05/30 01:25:35;;;;;;;4.47;4.05;;;;;;;10.90;76.94;99657.59;2806031;83;21089;-87
2022/05/30 01:29:42;;;;;;;5.03;3.95;;;;;;;10.70;76.50;99654.97;2794239;83;21082;-88
2022/05/30 01:33:43;;;;;;;3.75;2.98;;;;;;;10.62;75.71;99649.05;2799914;84;21038;-87
2022/05/30 01:37:44;;;;;;;3.85;3.30;;;;;;;10.55;75.82;99653.24;2794348;83;21629;-87
2022/05/30 01:41:45;;;;;;;10.03;5.53;;;;;;;10.28;77.35;99658.25;2721382;83;21045;-86
2022/05/30 01:45:46;;;;;;;6.92;5.80;;;;;;;9.93;81.02;99661.44;2809027;83;21031;-87
2022/05/30 01:49:48;;;;;;;5.55;5.05;;;;;;;9.71;82.11;99669.98;2808338;84;21077;-88
2022/05/30 01:53:51;;;;;;;5.97;3.95;;;;;;;9.69;82.54;99659.98;2785150;84;21589;-87
2022/05/30 01:57:52;;;;;;;7.72;5.55;;;;;;;9.61;83.82;99661.98;2810152;83;21078;-88
2022/05/30 02:01:53;;;;;;;6.50;4.50;;;;;;;9.52;83.65;99661.45;2810959;84;21069;-87
2022/05/30 02:05:54;;;;;;;5.83;5.20;;;;;;;9.61;84.29;99663.79;2789638;83;21026;-88
2022/05/30 02:09:55;;;;;;;6.47;5.22;;;;;;;9.76;84.34;99657.13;2810099;83;21720;-88
2022/05/30 02:13:56;;;;;;;7.15;5.45;;;;;;;9.94;84.33;99648.50;2813425;83;21782;-88
2022/05/30 02:17:57;;;;;;;7.70;6.12;;;;;;;10.11;84.33;99647.83;2822341;82;21080;-88
2022/05/30 02:22:00;;;;;;;5.90;4.83;;;;;;;10.29;83.76;99632.52;2820478;82;21700;-88
2022/05/30 02:26:01;;;;;;;3.95;3.60;;;;;;;10.39;83.29;99636.00;2817879;83;21534;-88
2022/05/30 02:30:03;;;;;;;6.95;4.20;;;;;;;10.31;82.45;99633.69;2837136;82;21580;-87
2022/05/30 02:38:25;;;;;;;8.45;4.45;;;;;;;10.50;83.19;99636.38;2787876;83;21573;-85
2022/05/30 02:42:26;;;;;;;4.33;3.92;;;;;;;10.68;82.48;99637.84;2837978;82;21518;-86
2022/05/30 02:46:27;;;;;;;6.42;4.60;;;;;;;10.66;81.67;99644.27;2840667;82;21022;-88
2022/05/30 02:50:28;;;;;;;5.90;4.53;;;;;;;10.62;82.77;99648.20;2818997;83;21007;-87
2022/05/30 02:54:29;;;;;;;7.15;3.62;;;;;;;10.76;83.15;99661.55;2836316;82;21073;-86
2022/05/30 02:58:31;;;;;;;5.30;4.55;;;;;;;10.89;82.96;99659.91;2841662;82;21649;-87
2022/05/30 03:02:32;;;;;;;4.83;4.33;;;;;;;10.96;82.49;99655.70;2838811;82;21081;-88
2022/05/30 03:06:35;;;;;;;8.25;4.47;;;;;;;11.04;82.53;99662.47;2840171;82;21022;-90
2022/05/30 03:10:37;;;;;;;5.65;4.80;;;;;;;11.14;82.46;99667.77;2817492;84;21701;-89
2022/05/30 03:14:38;;;;;;;5.35;4.42;;;;;;;11.11;81.67;99667.58;2838959;82;21529;-88
2022/05/30 03:18:39;;;;;;;6.17;4.78;;;;;;;11.09;82.53;99674.84;2752375;83;21038;-88
2022/05/30 03:22:41;;;;;;;4.35;3.42;;;;;;;11.19;82.83;99667.34;2805540;83;21045;-87
2022/05/30 03:26:42;;;;;;;5.05;4.55;;;;;;;11.23;82.24;99674.90;2749049;84;21002;-87
2022/05/30 03:30:44;;;;;;;9.23;4.75;;;;;;;11.25;82.85;99674.26;2809515;83;20939;-87
2022/05/30 03:34:45;;;;;;;6.05;4.62;;;;;;;11.35;82.87;99676.89;2834398;82;21038;-85
2022/05/30 03:38:46;;;;;;;10.05;5.97;;;;;;;11.34;83.39;99678.34;2839810;83;21500;-88
2022/05/30 03:42:47;;;;;;;7.87;6.08;;;;;;;11.31;83.62;99680.83;2814201;82;21033;-87
2022/05/30 03:46:48;;;;;;;9.18;6.22;;;;;;;11.32;83.78;99678.99;2815985;83;21007;-88
2022/05/30 03:50:49;;;;;;;6.53;4.25;;;;;;;11.20;84.55;99688.50;2791604;84;21069;-86
2022/05/30 03:54:52;;;;;;;4.55;4.15;;;;;;;11.18;84.80;99689.62;2773631;84;21105;-89
2022/05/30 03:58:53;;;;;;;4.33;3.92;;;;;;;11.25;84.48;99690.23;2803102;83;21058;-88
2022/05/30 04:02:54;;;;;;;5.25;3.62;;;;;;;11.38;84.88;99693.04;2807358;83;21549;-84
2022/05/30 04:06:55;;;;;;;17.77;6.70;;;;;;;11.50;84.25;99691.06;2805970;84;21011;-87
2022/05/30 04:10:56;;;;;;;5.05;3.70;;;;;;;11.60;84.04;99697.17;2770441;84;21570;-87
2022/05/30 04:15:00;;;;;;;3.67;2.95;;;;;;;11.63;83.68;99702.20;2760850;84;21058;-88
2022/05/30 04:19:02;;;;;;;5.72;3.98;;;;;;;11.68;83.65;99697.27;2809320;83;21038;-88
2022/05/30 04:23:03;;;;;;;10.25;6.08;;;;;;;11.74;84.01;99695.84;2809507;84;21050;-89
2022/05/30 04:27:05;;;;;;;5.83;4.15;;;;;;;11.81;84.36;99704.08;2809013;83;21857;-89
2022/05/30 04:31:12;;;;;;;6.80;4.95;;;;;;;11.84;84.02;99700.64;2828628;82;21033;-92
2022/05/30 04:35:14;;;;;;;11.40;5.85;;;;;;;11.86;83.98;99697.33;2822229;83;21015;-89
2022/05/30 04:39:15;;;;;;;16.45;6.53;;;;;;;11.95;83.52;99705.41;2750065;83;21038;-87
2022/05/30 04:43:17;;;;;;;10.08;7.08;;;;;;;12.08;84.18;99710.41;2837375;83;21064;-88
2022/05/30 04:47:18;;;;;;;5.20;4.28;;;;;;;12.27;84.17;99704.13;2843109;82;20974;-86
2022/05/30 04:51:19;;;;;;;5.90;5.17;;;;;;;12.46;83.51;99703.13;2843462;82;21528;-88
2022/05/30 04:55:21;;;;;;;7.62;4.53;;;;;;;12.66;83.72;99701.63;2753418;83;21014;-90
2022/05/30 04:59:22;;;;;;;14.85;5.53;;;;;;;12.89;81.68;99693.16;2822744;83;21597;-89
2022/05/30 05:03:23;;;;;;;5.60;2.65;;;;;;;13.09;80.76;99699.98;2793607;83;21026;-89
2022/05/30 05:07:24;;;;;;;4.05;3.50;;;;;;;13.18;80.87;99702.20;2822089;84;21003;-90
2022/05/30 05:11:29;;;;;;;4.75;2.98;;;;;;;13.20;80.91;99708.71;2793937;83;21066;-90
2022/05/30 05:15:30;;;;;;;6.30;3.20;;;;;;;13.23;80.78;99713.25;2822826;83;21026;-89
2022/05/30 05:19:32;;;;;;;5.92;2.87;;;;;;;13.28;80.88;99716.28;2793184;84;21018;-88
2022/05/30 05:23:34;;;;;;;9.65;3.98;;;;;;;13.34;80.75;99712.63;2776570;84;21053;-90
2022/05/30 05:27:35;;;;;;;5.28;2.87;;;;;;;13.35;80.44;99714.30;2819335;82;21049;-88
2022/05/30 05:31:36;;;;;;;6.37;3.27;;;;;;;13.33;79.96;99721.64;2822417;83;21034;-88
2022/05/30 05:35:42;;;;;;;4.10;3.70;;;;;;;13.37;80.39;99727.03;2769876;84;21046;-90
2022/05/30 05:39:43;;;;;;;;;;;;;;;13.37;80.21;99727.85;2825129;84;21042;-87
2022/05/30 05:43:45;;;;;;;8.88;3.37;;;;;;;13.37;79.74;99732.38;2797745;83;20173;-88
2022/05/30 05:47:47;;;;;;;3.40;2.85;;;;;;;13.36;79.65;99739.53;2793673;83;21101;-89
2022/05/30 05:51:54;;;;;;;2.55;2.35;;;;;;;13.44;80.14;99740.12;2775937;84;21072;-87
2022/05/30 05:55:55;;;;;;;3.65;2.27;;;;;;;13.49;79.05;99741.80;2756014;84;21066;-87
2022/05/30 05:59:56;;;;;;;4.62;4.15;;;;;;;13.50;78.59;99738.14;2793629;83;21037;-89
2022/05/30 06:04:05;;;;;;;4.87;3.42;;;;;;;13.53;78.91;99743.67;2822357;83;21018;-88
2022/05/30 06:08:06;;;;;;;4.75;2.95;;;;;;;13.49;79.07;99749.00;2840749;82;21033;-90
2022/05/30 06:12:09;;;;;;;2.90;2.70;;;;;;;13.51;79.37;99747.01;2843801;83;21034;-89
2022/05/30 06:16:21;;;;;;;3.60;3.00;;;;;;;13.53;80.78;99752.52;2843512;82;21013;-88
2022/05/30 06:20:22;;;;;;;4.12;2.95;;;;;;;13.55;80.53;99749.18;2815075;83;21022;-89
2022/05/30 06:24:23;;;;;;;5.33;2.40;;;;;;;13.58;81.22;99750.70;2820617;83;21069;-86
2022/05/30 06:28:25;;;;;;;3.12;2.83;;;;;;;13.67;81.03;99746.25;2770978;85;21026;-89
2022/05/30 06:32:26;;;;;;;4.87;2.62;;;;;;;13.74;81.23;99747.79;2804394;83;21029;-87
2022/05/30 06:36:27;;;;;;;7.60;3.80;;;;;;;13.79;81.24;99748.99;2733428;85;21593;-88
2022/05/30 06:40:28;;;;;;;5.90;4.10;;;;;;;13.90;81.28;99749.20;2781084;84;20989;-88
2022/05/30 06:44:31;;;;;;;5.97;3.58;;;;;;;14.01;81.42;99750.75;2771767;84;21100;-89
2022/05/30 06:48:32;;;;;;;4.10;3.70;;;;;;;14.08;82.05;99746.42;2819027;83;20985;-89
2022/05/30 06:52:35;;;;;;;3.30;2.60;;;;;;;14.14;81.86;99752.45;2842954;82;21840;-90
2022/05/30 07:00:47;;;;;;;4.40;3.52;;;;;;;14.42;80.52;99749.53;2794062;83;21074;-87
2022/05/30 07:04:48;;;;;;;5.62;3.50;;;;;;;14.55;79.77;99756.25;2812838;83;21100;-89
2022/05/30 07:08:49;;;;;;;6.40;3.77;;;;;;;14.69;79.37;99756.91;2771423;85;21061;-89
2022/05/30 07:12:51;;;;;;;4.65;2.83;;;;;;;14.80;78.16;99760.31;2816996;83;20974;-88
2022/05/30 07:16:52;;;;;;;3.08;2.80;;;;;;;14.97;76.59;99755.80;2842810;83;21500;-89
2022/05/30 07:20:59;;;;;;;6.62;3.55;;;;;;;15.12;76.40;99755.45;2748978;84;21073;-88
2022/05/30 07:25:00;;;;;;;3.65;3.05;;;;;;;15.32;75.79;99756.92;2822769;83;21088;-89
2022/05/30 07:29:01;;;;;;;8.35;4.22;;;;;;;15.45;75.47;99751.89;2844872;82;20966;-84
2022/05/30 07:33:02;;;;;;;5.80;3.72;;;;;;;15.58;74.53;99752.69;2807560;83;21327;-88
2022/05/30 07:37:05;;;;;;;3.92;3.15;;;;;;;15.73;74.34;99758.69;2843664;82;21042;-87
2022/05/30 07:41:07;;;;;;;4.97;3.20;;;;;;;15.93;74.65;99756.48;2819919;83;21600;-89
2022/05/30 07:45:10;;;;;;;4.47;2.10;;;;;;;16.17;73.48;99756.03;2794110;83;21097;-89
2022/05/30 07:49:13;;;;;;;3.12;2.52;;;;;;;16.41;70.73;99755.89;2822686;83;21026;-89
2022/05/30 07:53:15;;;;;;;2.55;1.87;;;;;;;16.54;69.31;99763.88;2844043;82;20986;-86
2022/05/30 07:57:16;;;;;;;5.53;3.25;;;;;;;16.71;69.94;99763.25;2843947;82;21030;-90
2022/05/30 08:01:20;;;;;;;4.28;2.67;;;;;;;16.81;70.08;99767.03;2843926;82;21144;-88
2022/05/30 08:05:22;;;;;;;3.95;2.42;;;;;;;16.87;69.84;99766.30;2823283;83;21090;-88
2022/05/30 08:09:24;;;;;;;3.77;2.30;;;;;;;16.88;70.02;99770.66;2797354;84;29400;-89
2022/05/30 08:13:25;;;;;;;3.37;1.92;;;;;;;16.89;69.89;99769.64;2796660;83;21152;-87
2022/05/30 08:17:26;;;;;;;5.72;2.15;;;;;;;16.97;69.77;99772.28;2824264;83;21044;-89
2022/05/30 08:21:27;;;;;;;6.42;2.17;;;;;;;16.96;68.49;99775.98;2824567;83;21366;-90
2022/05/30 08:25:29;;;;;;;2.33;2.12;;;;;;;16.95;67.31;99770.29;2810354;83;21091;-89
2022/05/30 08:29:30;;;;;;;2.85;2.05;;;;;;;16.95;68.32;99770.78;2824982;84;20996;-90
2022/05/30 08:33:32;;;;;;;5.08;1.90;;;;;;;16.91;67.84;99778.88;2824723;83;21024;-89
2022/05/30 08:37:37;;;;;;;2.20;1.98;;;;;;;16.91;68.11;99787.79;2823752;83;21607;-88
2022/05/30 08:41:47;;;;;;;2.27;2.08;;;;;;;16.92;67.03;99790.80;2824739;83;20973;-92
2022/05/30 08:45:50;;;;;;;3.65;1.90;;;;;;;16.92;66.17;99789.95;2824773;82;21044;-89
2022/05/30 08:49:52;;;;;;;2.37;1.25;;;;;;;16.93;67.32;99789.78;2794335;83;21061;-89
2022/05/30 08:54:21;;;;;;;1.40;1.25;;;;;;;17.01;66.53;99789.41;2776977;84;21002;-89
2022/05/30 08:58:49;;;;;;;2.67;2.02;;;;;;;17.10;65.46;99789.69;2843843;82;21578;-87
2022/05/30 09:02:55;;;;;;;3.67;2.30;;;;;;;17.24;65.69;99792.08;2844717;82;21522;-89
2022/05/30 09:07:08;;;;;;;6.72;2.33;;;;;;;17.29;64.03;99793.70;2844572;83;21025;-88
2022/05/30 09:11:31;;;;;;;4.67;1.80;;;;;;;17.41;64.15;99799.48;2821428;83;21508;-88
2022/05/30 09:15:46;;;;;;;4.40;2.08;;;;;;;17.46;64.96;99794.91;2798018;83;20967;-88
2022/05/30 09:19:48;;;;;;;2.77;2.08;;;;;;;17.59;65.27;99800.49;2823161;82;21118;-89
2022/05/30 09:23:49;;;;;;;3.30;2.35;;;;;;;17.90;66.37;99791.92;2794659;83;21034;-88
2022/05/30 09:27:50;;;;;;;2.52;2.00;;;;;;;18.05;62.90;99795.98;2824030;83;21014;-89
2022/05/30 09:32:32;;;;;;;3.92;2.05;;;;;;;18.24;65.22;99794.55;2770639;84;21049;-89
2022/05/30 09:36:38;;;;;;;3.20;1.62;;;;;;;18.31;62.98;99791.44;2807549;84;21045;-88
2022/05/30 09:40:45;;;;;;;4.33;2.22;;;;;;;18.35;63.47;99794.07;2794722;83;21058;-88
2022/05/30 09:44:50;;;;;;;2.85;2.12;;;;;;;18.41;62.71;99793.30;2798813;85;21046;-89
2022/05/30 09:49:02;;;;;;;6.78;2.45;;;;;;;18.41;62.11;99788.45;2798225;84;21027;-89
2022/05/30 09:53:04;;;;;;;3.87;2.45;;;;;;;18.36;61.12;99782.28;2795847;83;21082;-89
2022/05/30 09:57:19;;;;;;;4.72;2.20;;;;;;;18.51;63.77;99784.11;2810944;83;21086;-90
2022/05/30 10:01:26;;;;;;;2.92;1.90;;;;;;;18.84;60.01;99787.63;2810731;83;21034;-89
2022/05/30 10:05:31;;;;;;;3.00;1.85;;;;;;;19.10;59.18;99779.52;2811267;84;21069;-89
2022/05/30 10:09:34;;;;;;;2.65;1.40;;;;;;;19.44;58.48;99765.77;2788171;83;21546;-90
2022/05/30 10:13:40;;;;;;;2.65;2.05;;;;;;;19.66;57.26;99763.02;2795083;83;21022;-90
2022/05/30 10:17:41;;;;;;;;;;;;;;;19.71;57.70;99760.55;2726944;84;21033;-88
2022/05/30 10:31:44;;;;;;;4.42;1.90;;;;;;;20.18;54.55;99751.36;2804550;84;21034;-89
2022/05/30 10:36:12;;;;;;;1.85;1.35;;;;;;;20.22;54.27;99743.16;2770204;84;21084;-87
2022/05/30 10:40:37;;;;;;;2.65;1.90;;;;;;;20.32;56.70;99745.47;2812822;83;21032;-88
2022/05/30 10:44:46;;;;;;;2.98;2.05;;;;;;;20.37;56.62;99740.82;2772865;84;21039;-87
2022/05/30 10:49:09;;;;;;;2.08;1.37;;;;;;;20.49;54.65;99751.32;2810717;84;21196;-88
2022/05/30 10:53:34;;;;;;;7.50;2.15;;;;;;;20.59;53.97;99741.47;2807675;83;21008;-89
2022/05/30 10:57:48;;;;;;;4.83;1.40;;;;;;;20.51;53.50;99749.78;2707198;86;21077;-89
2022/05/30 11:02:26;;;;;;;10.13;2.25;;;;;;;20.52;54.22;99744.69;2698934;86;21038;-89
2022/05/30 11:06:32;;;;;;;2.00;1.60;;;;;;;20.54;54.56;99749.37;2710996;86;21371;-89
2022/05/30 11:10:42;;;;;;;4.22;2.35;;;;;;;20.65;51.14;99746.08;2701994;86;21063;-88
2022/05/30 11:14:57;;;;;;;176.65;33.70;;;;;;;20.79;54.26;99748.77;2693602;86;21608;-89
2022/05/30 11:19:09;;;;;;;4.72;2.10;;;;;;;21.08;57.05;99746.22;2699230;85;21149;-89
2022/05/30 11:23:11;;;;;;;3.15;2.20;;;;;;;21.20;51.52;99747.77;2701344;86;21089;-87
2022/05/30 11:27:37;;;;;;;7.35;2.10;;;;;;;21.22;50.45;99747.57;2694411;87;21022;-90
2022/05/30 11:32:00;;;;;;;3.17;1.40;;;;;;;21.16;51.90;99745.17;2576414;90;21082;-87
2022/05/30 11:36:15;;;;;;;5.60;1.55;;;;;;;21.24;53.05;99751.73;2584017;90;21064;-89
2022/05/30 11:40:45;;;;;;;5.40;2.57;;;;;;;21.25;52.52;99742.59;2583744;90;21184;-89
2022/05/30 11:45:14;;;;;;;5.25;1.32;;;;;;;21.21;50.30;99735.91;2583487;90;21075;-88
2022/05/30 11:49:35;;;;;;;1.42;1.30;;;;;;;21.30;53.67;99736.52;2579058;90;21098;-88
2022/05/30 11:54:04;;;;;;;5.33;1.62;;;;;;;21.68;54.36;99730.98;2580197;90;21063;-89
2022/05/30 11:58:14;;;;;;;8.58;2.02;;;;;;;21.62;50.39;99733.16;2582289;90;21095;-90
2022/05/30 12:02:23;;;;;;;5.95;2.27;;;;;;;21.50;49.39;99735.15;2583545;90;21104;-88
2022/05/30 12:06:57;;;;;;;18.02;4.17;;;;;;;21.25;52.59;99739.88;2651692;84;21118;-89
2022/05/30 12:11:03;;;;;;;2.17;1.67;;;;;;;21.57;52.37;99730.23;2820353;83;21106;-89
2022/05/30 12:15:31;;;;;;;4.30;1.45;;;;;;;22.01;52.11;99729.19;2808574;84;20978;-87
2022/05/30 12:24:37;;;;;;;1.92;1.60;;;;;;;21.54;52.76;99738.27;2695636;87;21074;-90
2022/05/30 12:28:44;;;;;;;4.17;1.80;;;;;;;21.21;55.34;99731.84;2732503;86;21064;-89
2022/05/30 12:32:46;;;;;;;1.80;1.70;;;;;;;21.17;55.68;99740.08;2732505;86;21505;-90
2022/05/30 12:36:47;;;;;;;5.70;1.95;;;;;;;21.21;55.22;99756.19;2733052;84;21050;-88
2022/05/30 12:41:09;;;;;;;3.33;1.52;;;;;;;21.23;54.46;99754.13;2732111;86;21087;-90
2022/05/30 12:45:24;;;;;;;4.70;2.40;;;;;;;20.96;54.68;99762.23;2708449;86;21082;-88
2022/05/30 12:49:33;;;;;;;5.67;1.40;;;;;;;20.46;53.90;99766.59;2729460;86;21138;-88
2022/05/30 12:53:59;;;;;;;4.00;1.45;;;;;;;19.67;54.67;99780.87;2689352;86;20988;-86
2022/05/30 12:58:00;;;;;;;8.45;2.85;;;;;;;18.48;58.57;99792.56;2734860;84;21043;-87
2022/05/30 13:02:04;;;;;;;3.47;1.80;;;;;;;17.88;61.45;99796.14;2819680;83;21074;-90
2022/05/30 13:06:25;;;;;;;4.20;2.35;;;;;;;17.98;63.46;99787.78;2804946;83;21077;-90
2022/05/30 13:10:40;;;;;;;13.28;3.83;;;;;;;18.36;61.57;99793.05;2843806;82;21102;-85
2022/05/30 13:14:58;;;;;;;1.70;1.45;;;;;;;18.60;60.61;99796.41;2818318;84;20992;-89
2022/05/30 13:19:00;;;;;;;2.35;1.45;;;;;;;18.74;57.81;99803.30;2766111;84;21014;-89
2022/05/30 13:23:06;;;;;;;2.72;2.37;;;;;;;18.44;57.83;99804.72;2841508;82;21024;-89
2022/05/30 13:27:07;;;;;;;2.52;1.65;;;;;;;18.06;58.46;99801.16;2790356;84;21074;-88
2022/05/30 13:31:11;;;;;;;2.50;2.10;;;;;;;17.78;58.54;99809.86;2811940;83;21037;-86
2022/05/30 13:35:14;;;;;;;4.15;2.22;;;;;;;17.64;60.41;99816.91;2832019;83;21432;-89
2022/05/30 13:39:15;;;;;;;1.85;1.70;;;;;;;17.71;60.09;99823.73;2807974;84;20996;-89
2022/05/30 13:43:33;;;;;;;2.20;1.62;;;;;;;17.98;59.33;99812.84;2807404;84;21117;-90
2022/05/30 13:47:34;;;;;;;1.80;1.70;;;;;;;18.18;58.90;99822.22;2790378;84;21571;-87
2022/05/30 13:51:46;;;;;;;2.67;2.17;;;;;;;17.98;59.90;99831.69;2790544;84;21110;-87
2022/05/30 13:56:04;;;;;;;3.08;2.35;;;;;;;18.02;60.39;99832.68;2810768;84;21027;-88
2022/05/30 14:00:10;;;;;;;2.55;1.40;;;;;;;18.05;58.53;99828.27;2804940;83;21046;-88
2022/05/30 14:04:23;;;;;;;2.50;1.37;;;;;;;18.03;59.11;99835.70;2787574;83;21093;-87
2022/05/30 14:08:30;;;;;;;3.30;1.85;;;;;;;18.23;59.03;99841.33;2806830;84;21571;-89
2022/05/30 14:12:36;;;;;;;2.55;2.10;;;;;;;18.49;60.01;99845.41;2790150;84;21058;-90
2022/05/30 14:16:45;;;;;;;2.25;1.52;;;;;;;18.68;58.97;99839.91;2807631;83;21095;-90
2022/05/30 14:20:49;;;;;;;2.98;2.40;;;;;;;18.92;60.38;99844.11;2803241;83;21168;-88
2022/05/30 14:24:59;;;;;;;3.33;2.00;;;;;;;19.43;62.74;99846.35;2746046;83;21457;-89
2022/05/30 14:29:03;;;;;;;2.55;2.08;;;;;;;19.77;58.88;99836.65;2798619;84;21078;-90
2022/05/30 14:33:13;;;;;;;;;;;;;;;20.04;58.44;99832.78;2833625;83;21061;-89
2022/05/30 14:37:28;;;;;;;1.77;1.47;;;;;;;20.29;57.12;99836.86;2833963;82;20723;-87
2022/05/30 14:41:34;;;;;;;4.42;1.10;;;;;;;20.53;56.78;99826.05;2839014;82;21069;-88
2022/05/30 14:45:44;;;;;;;3.47;2.37;;;;;;;20.58;50.98;99823.56;2818455;82;21577;-91
2022/05/30 14:49:50;;;;;;;4.62;1.52;;;;;;;20.63;50.45;99831.88;2783933;84;21602;-89
2022/05/30 14:53:51;;;;;;;1.12;0.90;;;;;;;20.50;51.78;99831.86;2791021;83;21035;-90
2022/05/30 14:57:55;;;;;;;2.52;2.00;;;;;;;20.44;50.92;99836.70;2763136;83;21031;-89
2022/05/30 15:01:56;;;;;;;2.83;1.67;;;;;;;20.64;51.41;99833.58;2771628;85;21007;-88
2022/05/30 15:05:57;;;;;;;1.80;1.45;;;;;;;20.77;52.44;99833.28;2839510;82;21005;-89
2022/05/30 15:09:59;;;;;;;1.47;1.37;;;;;;;20.89;49.93;99837.59;2837357;82;21502;-88
2022/05/30 15:14:14;;;;;;;2.50;1.60;;;;;;;20.94;50.27;99841.89;2841454;82;21025;-89
2022/05/30 15:18:15;;;;;;;2.40;2.13;;;;;;;21.03;49.46;99836.59;2817799;82;21003;-90
2022/05/30 15:22:18;;;;;;;2.92;1.50;;;;;;;20.87;50.57;99847.28;2793968;83;21016;-88
2022/05/30 15:26:22;;;;;;;1.62;1.52;;;;;;;20.90;51.54;99846.02;2803595;83;21554;-87
2022/05/30 15:30:23;;;;;;;1.10;1.00;;;;;;;20.73;51.54;99849.06;2844454;83;21317;-90
2022/05/30 15:34:24;;;;;;;3.15;1.50;;;;;;;20.48;50.28;99850.96;2817912;82;21064;-86
2022/05/30 15:38:25;;;;;;;3.15;1.47;;;;;;;20.24;51.45;99857.70;2817100;83;21082;-90
2022/05/30 15:42:27;;;;;;;1.52;1.32;;;;;;;19.82;52.42;99855.77;2797346;84;21018;-88
2022/05/30 15:46:28;;;;;;;1.90;1.70;;;;;;;19.48;52.90;99870.05;2795518;83;21054;-88
2022/05/30 15:50:34;;;;;;;3.67;1.85;;;;;;;19.05;55.50;99870.89;2795648;83;21027;-88
2022/05/30 15:59:03;;;;;;;1.75;1.50;;;;;;;18.40;57.60;99872.42;2848562;82;21680;-88
2022/05/30 16:03:04;;;;;;;1.77;1.12;;;;;;;18.13;58.36;99882.84;2816951;83;21077;-88
2022/05/30 16:07:06;;;;;;;4.30;1.90;;;;;;;17.98;59.02;99894.06;2818385;83;21059;-88
2022/05/30 16:11:13;;;;;;;2.62;2.42;;;;;;;18.12;58.93;99902.70;2816607;83;21074;-89
2022/05/30 16:15:16;;;;;;;7.37;2.22;;;;;;;18.21;57.72;99906.14;2811786;83;21673;-87
2022/05/30 16:19:17;;;;;;;4.22;1.90;;;;;;;18.33;57.67;99908.35;2848236;82;21009;-88
2022/05/30 16:23:25;;;;;;;2.58;1.52;;;;;;;18.24;56.68;99912.98;2807667;83;21042;-87
2022/05/30 16:27:30;;;;;;;4.70;2.22;;;;;;;18.07;55.92;99915.85;2810279;83;21462;-89
2022/05/30 16:31:31;;;;;;;5.03;1.87;;;;;;;17.96;57.66;99922.48;2799845;83;21027;-88
2022/05/30 16:35:33;;;;;;;4.37;1.85;;;;;;;17.72;58.69;99926.77;2803800;83;21098;-87
2022/05/30 16:39:34;;;;;;;1.70;1.60;;;;;;;17.56;59.80;99922.70;2794604;83;21082;-90
2022/05/30 16:43:36;;;;;;;2.12;1.62;;;;;;;17.45;61.01;99928.48;2810459;84;21496;-87
2022/05/30 16:47:37;;;;;;;1.20;1.10;;;;;;;17.53;60.00;99926.24;2809155;83;21077;-89
2022/05/30 16:51:39;;;;;;;1.20;1.10;;;;;;;17.73;58.76;99928.43;2811261;83;21018;-87
2022/05/30 16:55:40;;;;;;;23.55;6.00;;;;;;;17.85;57.83;99937.22;2805730;83;21058;-88
2022/05/30 16:59:43;;;;;;;0.90;0.88;;;;;;;17.76;58.85;99922.69;2788025;83;21074;-88
2022/05/30 17:03:44;;;;;;;1.65;1.55;;;;;;;17.56;58.30;99931.25;2809988;83;20999;-88
2022/05/30 17:07:49;;;;;;;1.67;1.25;;;;;;;17.36;59.54;99926.89;2804141;83;21090;-87
2022/05/30 17:11:48;;;;;;;1.50;1.32;;;;;;;17.25;59.14;99931.65;2808072;84;20999;-85
2022/05/30 17:15:54;;;;;;;10.15;2.67;;;;;;;17.10;59.61;99928.89;2785587;84;21065;-88
2022/05/30 17:19:55;;;;;;;1.47;0.90;;;;;;;17.08;59.88;99924.70;2772527;84;21069;-88
2022/05/30 17:23:57;;;;;;;1.42;1.02;;;;;;;17.03;60.51;99928.44;2764631;83;21068;-88
2022/05/30 17:32:28;;;;;;;7.30;2.98;;;;;;;17.04;60.29;99931.45;2775602;84;21574;-88
2022/05/30 17:36:30;;;;;;;5.05;2.20;;;;;;;17.07;60.92;99931.09;2806425;83;21061;-87
2022/05/30 17:40:31;;;;;;;2.25;2.05;;;;;;;17.10;60.01;99939.64;2805939;83;21086;-87
2022/05/30 17:44:32;;;;;;;3.83;2.33;;;;;;;17.13;60.80;99946.52;2783668;83;21103;-88
2022/05/30 17:49:00;;;;;;;15.25;4.53;;;;;;;17.13;60.84;99946.52;2785677;84;21002;-87
2022/05/30 17:53:02;;;;;;;1.52;1.30;;;;;;;17.05;61.77;99950.59;2799440;84;21566;-87
2022/05/30 17:57:04;;;;;;;1.20;1.05;;;;;;;16.99;61.60;99958.34;2798918;83;21086;-88
2022/05/30 18:01:06;;;;;;;2.65;1.92;;;;;;;16.92;61.70;99963.22;2758919;83;21384;-87
2022/05/30 18:05:10;;;;;;;1.92;1.75;;;;;;;16.86;61.74;99960.72;2802072;84;21047;-86
2022/05/30 18:09:39;;;;;;;1.60;1.45;;;;;;;16.79;62.09;99969.16;2799467;83;21057;-88
2022/05/30 18:14:03;;;;;;;5.17;1.30;;;;;;;16.70;62.57;99977.27;2791157;83;21090;-94
2022/05/30 18:23:05;;;;;;;2.33;1.22;;;;;;;16.50;62.97;99979.98;2715048;86;21035;-89
2022/05/30 18:27:13;;;;;;;3.80;2.10;;;;;;;16.34;63.77;99985.75;2717166;86;21116;-88
2022/05/30 18:31:48;;;;;;;3.50;1.60;;;;;;;16.23;63.78;99992.31;2717445;86;21006;-88
2022/05/30 18:36:12;;;;;;;1.42;1.30;;;;;;;16.15;63.69;100003.04;2715270;87;21061;-85
2022/05/30 18:40:38;;;;;;;1.75;1.65;;;;;;;16.04;63.73;100009.59;2717645;86;21034;-87
2022/05/30 18:44:54;;;;;;;3.83;2.37;;;;;;;15.92;63.90;100010.95;2712747;86;21061;-89
2022/05/30 18:49:09;;;;;;;3.17;2.20;;;;;;;15.78;64.60;100018.62;2716562;86;21061;-88
2022/05/30 18:53:13;;;;;;;1.77;1.67;;;;;;;15.64;64.87;100024.63;2714888;86;21344;-88
2022/05/30 18:57:39;;;;;;;17.60;3.58;;;;;;;15.49;65.31;100021.77;2728012;84;21110;-87
2022/05/30 19:01:41;;;;;;;16.17;3.83;;;;;;;15.33;65.87;100022.54;2706632;86;21070;-86
2022/05/30 19:05:43;;;;;;;10.48;2.33;;;;;;;15.08;67.48;100030.02;2657495;86;21037;-86
2022/05/30 19:09:46;;;;;;;8.63;2.62;;;;;;;14.88;67.50;100032.09;2698039;86;21844;-88
2022/05/30 19:14:12;;;;;;;4.65;2.90;;;;;;;14.70;67.82;100038.34;2711155;86;21035;-87
2022/05/30 19:18:54;;;;;;;5.30;1.90;;;;;;;14.57;67.92;100041.45;2712633;85;21011;-88
2022/05/30 19:22:57;;;;;;;10.55;3.27;;;;;;;14.22;68.45;100052.57;2705369;85;21107;-87
2022/05/30 19:26:58;;;;;;;10.53;3.72;;;;;;;14.04;69.64;100056.62;2748144;85;21201;-89
2022/05/30 19:31:03;;;;;;;10.68;3.15;;;;;;;13.92;70.64;100062.70;2743865;85;21026;-88
2022/05/30 19:35:07;;;;;;;6.28;3.67;;;;;;;13.85;70.79;100068.30;2724710;85;21091;-87
2022/05/30 19:39:09;;;;;;;13.75;4.22;;;;;;;13.80;70.89;100074.61;2827087;82;21143;-89
2022/05/30 19:43:10;;;;;;;5.50;3.00;;;;;;;13.71;71.13;100081.70;2781557;82;22037;-88
2022/05/30 19:47:13;;;;;;;3.00;2.15;;;;;;;13.68;71.19;100078.00;2793386;83;21076;-90
2022/05/30 19:51:14;;;;;;;5.17;2.85;;;;;;;13.61;71.58;100081.77;2840217;82;21089;-89
2022/05/30 19:55:22;;;;;;;3.15;2.83;;;;;;;13.54;71.57;100090.88;2840138;82;21081;-89
2022/05/30 19:59:24;;;;;;;3.08;2.22;;;;;;;13.46;71.85;100091.27;2750083;85;21517;-91
2022/05/30 20:03:25;;;;;;;5.83;3.33;;;;;;;13.37;71.53;100094.34;2837282;83;21014;-90